Pagrindinis puslapis
METAR-TAF:

METAR-TAF

Oro uostai :

Lapenranta, Suomija

platuma: 61-02-45N, ilguma: 028-08-55E, Aukštis: 106 m

Dabartinis oras

Ataskaita buvo paskelbta 29 minutes, ne 12:50 UTC
Vėjas 6 kt iš Vakarų/Pietvakarių
Temperatūra -3°C
Drėgmė 74%
Slėgis 1010 hPa
Matomumas 10 km arba daugiau
Mažai debesys ne aukštis 1900 ft
Apsiniaukę ne aukštis 2400 ft

METAR: EFLP 201250Z AUTO 24006KT 9999 FEW019 OVC024 M03/M07 Q1010 REFZRA

Laikas: 16:19 (13:19 UTC)

Prognozė

Ataskaita buvo paskelbta 18 valandos ir 45 minutes, ne 18:34 UTC
Prognozė galioja nuo 19 metu 18 UTC su 19 metu 21 UTC
Vėjas 12 kt iš Šiaurės
Matomumas: 2500 m
Išsisklaidę debesys ne aukštis 700 ft
Apsiniaukę ne aukštis 2000 ft
sniegas
Laikinai
nuo 19 metu 18 UTC su 19 metu 20 UTC
Matomumas: 1000 m
Su prošvaistėmis ne aukštis 200 ft
sniegas
Tapsmas
nuo 19 metu 20 UTC su 19 metu 21 UTC
Matomumas: 3000 m
Su prošvaistėmis ne aukštis 700 ft
sniegas,

TAF: EFLP 191834Z 1918/1921 01012KT 2500 SN SCT007 OVC020 TEMPO 1918/1920 1000 +SN BKN002 BECMG 1920/1921 3000 -SN BKN007

Orai ataskaitas ir orų prognozės (METAR, TAF).

turimą stotys yra geltonos ir raudonos taškus žemėlapyje.

Perkelti pele per norėdami pamatyti stoties vardą.

Tada spustelėkite, norėdami matyti oro stebėjimo ir prognozės.

Norėdami pakeisti žemėlapį: spustelėkite ant žalios mygtukų su juodo kryžiaus žemyn,; žalią mygtuką su brūkšneliu, jei norite nutolinti; arba žalių rodyklių gretimoms žemėlapius.


METAR-TAF: